Rugby, North Dakota
Current Conditions -  °F | °C
As of 4:15 AM on Sunday 25 Jan 2015 (Local Time) from KRUG Reporting Station
Overcast Overcast  
Wind Chill: -15°   Ceiling: 1000
Heat Index: -9°   Visibility: 10mi
Dew Point: -10°   Wind: 9mph
Humidity: 93%   Direction: 90°E
Pressure: 29.96"   Gusts: NA
Location:  48.37°N, 100°W
Report Text: KRUG 251015Z AUTO 09008KT 10SM OVC010 M09/M10 A2996 RMK AO2
Loading
Personal Weather Stations






























Interactive Weather Map New forecast layout! Learn more

10-Day Weather Forecast

Advertisements
Track Severe Weather on mobile